Time;durP1;ratioP1;P1;durP2;ratioP2;P2;SDS_P1;SDS_P2;PMS_P1;PMS_P2;Temp;Humidity;BMP_temperature;BMP_pressure;BME280_temperature;BME280_humidity;BME280_pressure;Samples;Min_cycle;Max_cycle;Signal;HPM_P1;HPM_P2
2022/09/05 00:01:18;;;;;;;1.62;0.80;;;;;;;22.37;39.67;102352.76;1474377;97;21127;-55
2022/09/05 00:03:50;;;;;;;16.15;14.68;;;;;;;22.36;39.65;102347.91;1425966;100;21158;-57
2022/09/05 00:06:17;;;;;;;9.35;8.58;;;;;;;22.35;39.59;102352.84;1439098;99;21142;-55
2022/09/05 00:09:12;;;;;;;4.60;3.98;;;;;;;22.36;39.45;102351.89;1439838;99;21135;-54
2022/09/05 00:11:55;;;;;;;1.90;1.80;;;;;;;22.35;39.34;102351.51;1433963;98;21658;-57
2022/09/05 00:14:51;;;;;;;1.62;1.27;;;;;;;22.34;39.23;102353.75;1367184;104;21158;-54
2022/09/05 00:17:39;;;;;;;1.42;1.10;;;;;;;22.34;39.04;102352.42;1368380;104;21157;-53
2022/09/05 00:20:33;;;;;;;0.98;0.70;;;;;;;22.34;39.07;102352.42;1369770;103;21582;-53
2022/09/05 00:23:39;;;;;;;0.82;0.70;;;;;;;22.34;38.99;102355.08;1367215;104;21150;-53
2022/09/05 00:26:29;;;;;;;0.70;0.70;;;;;;;22.34;38.87;102348.94;1361187;104;21586;-53
2022/09/05 00:29:17;;;;;;;1.87;0.80;;;;;;;22.35;38.71;102357.27;1353870;106;21160;-55
2022/09/05 00:31:54;;;;;;;2.47;0.88;;;;;;;22.33;38.79;102350.72;1367762;105;21165;-55
2022/09/05 00:35:00;;;;;;;1.30;0.80;;;;;;;22.32;39.07;102347.66;1380093;102;21200;-53
2022/09/05 00:37:37;;;;;;;2.92;0.80;;;;;;;22.33;39.30;102352.05;1399804;101;21120;-57
2022/09/05 00:40:29;;;;;;;1.82;0.72;;;;;;;22.33;39.49;102352.05;1422269;101;21169;-55
2022/09/05 00:43:10;;;;;;;2.42;0.90;;;;;;;22.34;39.50;102349.77;1415016;101;21124;-53
2022/09/05 00:45:59;;;;;;;1.80;0.70;;;;;;;22.34;39.61;102348.45;1442307;97;21157;-55
2022/09/05 00:48:54;;;;;;;0.75;0.60;;;;;;;22.34;39.71;102347.12;1469049;97;21088;-53
2022/09/05 00:51:41;;;;;;;1.92;0.98;;;;;;;22.35;39.71;102346.66;1469751;97;21643;-53
2022/09/05 00:54:34;;;;;;;1.10;0.70;;;;;;;22.32;39.54;102347.66;1469326;97;21556;-55
2022/09/05 00:57:43;;;;;;;1.02;0.60;;;;;;;22.30;39.21;102338.91;1466757;97;21096;-53
2022/09/05 01:00:21;;;;;;;0.60;0.60;;;;;;;22.30;39.10;102344.21;1480371;94;21148;-53
2022/09/05 01:03:35;;;;;;;1.20;0.70;;;;;;;22.27;39.11;102344.38;1514069;94;21064;-53
2022/09/05 01:06:24;;;;;;;0.62;0.62;;;;;;;22.26;39.14;102341.30;1513564;94;21135;-55
2022/09/05 01:09:34;;;;;;;1.40;0.90;;;;;;;22.26;39.27;102341.30;1485276;96;21160;-55
2022/09/05 01:12:19;;;;;;;1.42;0.70;;;;;;;22.25;39.40;102343.58;1559742;91;21703;-53
2022/09/05 01:15:21;;;;;;;1.37;0.82;;;;;;;22.25;39.46;102344.91;1556224;92;21119;-60
2022/09/05 01:18:37;;;;;;;2.40;0.70;;;;;;;22.24;39.56;102335.21;1534837;93;21108;-53
2022/09/05 01:21:29;;;;;;;0.75;0.60;;;;;;;22.25;39.56;102337.41;1526239;92;21082;-55
2022/09/05 01:24:22;;;;;;;0.80;0.70;;;;;;;22.25;39.64;102339.60;1535984;92;21146;-56
2022/09/05 01:27:46;;;;;;;0.90;0.60;;;;;;;22.25;39.67;102337.41;1536133;93;21092;-53
2022/09/05 01:30:24;;;;;;;1.52;1.10;;;;;;;22.25;39.61;102340.06;1536298;93;21086;-55
2022/09/05 01:33:22;;;;;;;1.22;0.72;;;;;;;22.25;39.51;102335.63;1532235;93;21256;-53
2022/09/05 01:36:15;;;;;;;1.77;1.00;;;;;;;22.25;39.45;102338.27;1558998;91;21093;-52
2022/09/05 01:39:17;;;;;;;2.35;1.20;;;;;;;22.26;39.39;102335.13;1560032;92;21112;-54
2022/09/05 01:42:02;;;;;;;1.12;0.90;;;;;;;22.27;39.44;102339.06;1556896;91;21037;-60
2022/09/05 01:45:09;;;;;;;1.20;0.72;;;;;;;22.27;39.63;102337.74;1557588;92;21604;-54
2022/09/05 01:47:51;;;;;;;1.87;0.70;;;;;;;22.27;39.74;102333.77;1558341;92;21100;-54
2022/09/05 01:50:50;;;;;;;1.17;0.72;;;;;;;22.29;39.58;102340.31;1531710;93;21617;-55
2022/09/05 01:53:39;;;;;;;0.70;0.70;;;;;;;22.30;39.50;102340.69;1539899;93;21067;-55
2022/09/05 01:56:31;;;;;;;2.08;0.88;;;;;;;22.26;39.56;102339.98;1546283;93;21108;-59
2022/09/05 01:59:41;;;;;;;1.80;0.93;;;;;;;22.23;39.48;102338.81;1520678;94;21125;-53
2022/09/05 02:02:23;;;;;;;1.25;0.90;;;;;;;22.26;39.49;102339.98;1519521;94;21733;-53
2022/09/05 02:05:10;;;;;;;1.35;0.90;;;;;;;22.30;39.56;102338.04;1444034;98;21157;-53
2022/09/05 02:08:05;;;;;;;0.75;0.65;;;;;;;22.31;39.58;102338.00;1449255;98;21141;-53
2022/09/05 02:11:01;;;;;;;1.20;0.90;;;;;;;22.31;39.63;102335.34;1428079;100;21086;-57
2022/09/05 02:13:36;;;;;;;1.80;1.02;;;;;;;22.31;39.58;102335.34;1365719;104;21145;-56
2022/09/05 02:16:27;;;;;;;3.08;1.27;;;;;;;22.32;39.53;102331.74;1382859;103;21143;-55
2022/09/05 02:19:07;;;;;;;2.45;1.07;;;;;;;22.32;39.62;102330.42;1317983;109;21176;-53
2022/09/05 02:21:40;;;;;;;3.33;1.10;;;;;;;22.32;39.78;102323.79;1314948;108;21185;-60
2022/09/05 02:24:39;;;;;;;;;;;;;;;22.34;39.84;102325.91;1318317;109;21184;-55
2022/09/05 02:27:32;;;;;;;2.12;1.20;;;;;;;22.31;40.02;102316.78;1316128;108;20223;-57
2022/09/05 02:30:09;;;;;;;1.25;0.85;;;;;;;22.31;40.24;102319.43;1282953;111;21132;-56
2022/09/05 02:32:48;;;;;;;1.35;1.22;;;;;;;22.30;40.34;102322.13;1282979;112;21181;-54
2022/09/05 02:35:38;;;;;;;4.35;1.17;;;;;;;22.30;40.30;102319.02;1284484;108;21220;-58
2022/09/05 02:38:23;;;;;;;1.87;1.05;;;;;;;22.31;40.29;102321.22;1340982;107;21684;-55
2022/09/05 02:41:06;;;;;;;1.32;0.90;;;;;;;22.32;40.10;102317.61;1321254;109;21173;-53
2022/09/05 02:43:41;;;;;;;1.62;0.88;;;;;;;22.31;40.08;102316.78;1318216;107;21226;-57
2022/09/05 02:46:30;;;;;;;1.82;1.02;;;;;;;22.31;40.05;102315.91;1287349;110;21739;-56
2022/09/05 02:49:05;;;;;;;2.02;1.00;;;;;;;22.31;39.98;102324.73;1298360;110;21658;-56
2022/09/05 02:51:40;;;;;;;1.72;1.05;;;;;;;22.32;39.98;102324.25;1301032;109;21681;-58
2022/09/05 02:54:11;;;;;;;1.45;0.98;;;;;;;22.30;40.10;102320.34;1282563;111;21655;-51
2022/09/05 02:57:16;;;;;;;2.37;0.88;;;;;;;22.32;40.51;102326.44;1312706;109;21606;-51
2022/09/05 03:00:20;;;;;;;1.30;0.93;;;;;;;22.30;41.17;102330.95;1309730;109;21182;-56
2022/09/05 03:03:15;;;;;;;1.57;1.02;;;;;;;22.30;41.80;102328.30;1410095;100;21102;-53
2022/09/05 03:06:06;;;;;;;2.02;1.02;;;;;;;22.30;41.95;102328.30;1414656;100;21662;-55
2022/09/05 03:08:44;;;;;;;2.55;1.17;;;;;;;22.26;42.07;102324.07;1419570;99;21122;-56
2022/09/05 03:11:41;;;;;;;2.10;0.90;;;;;;;22.27;42.21;102327.13;1413349;100;21603;-53
2022/09/05 03:15:02;;;;;;;1.00;0.80;;;;;;;22.27;42.38;102331.11;1370222;99;21653;-55
2022/09/05 03:18:10;;;;;;;1.10;0.88;;;;;;;22.26;42.54;102332.03;1431570;98;21109;-58
2022/09/05 03:21:18;;;;;;;0.90;0.90;;;;;;;22.26;42.66;102334.68;1413262;99;21475;-53
2022/09/05 03:24:41;;;;;;;2.65;1.10;;;;;;;22.25;42.82;102338.27;1419411;99;21620;-54
2022/09/05 03:27:45;;;;;;;1.70;1.07;;;;;;;22.26;43.23;102339.98;1431256;98;21178;-55
2022/09/05 03:30:24;;;;;;;2.58;1.50;;;;;;;22.26;43.33;102339.11;1438705;97;21124;-55
2022/09/05 03:33:21;;;;;;;2.33;1.55;;;;;;;22.25;43.64;102335.63;1420879;99;21160;-54
2022/09/05 03:36:16;;;;;;;2.45;1.30;;;;;;;22.26;43.84;102339.98;1434549;97;21224;-55
2022/09/05 03:39:10;;;;;;;2.70;1.67;;;;;;;22.24;44.00;102341.84;1418725;100;21107;-57
2022/09/05 03:42:11;;;;;;;1.77;1.52;;;;;;;22.24;44.24;102344.49;1450424;98;21129;-57
2022/09/05 03:45:08;;;;;;;1.87;1.40;;;;;;;22.23;44.39;102342.79;1441182;98;21142;-57
2022/09/05 03:47:55;;;;;;;1.95;1.50;;;;;;;22.22;44.60;102343.70;1427035;99;21674;-52
2022/09/05 03:50:54;;;;;;;2.27;1.55;;;;;;;22.21;44.59;102344.65;1415141;99;21140;-54
2022/09/05 03:54:07;;;;;;;1.77;1.60;;;;;;;22.21;44.51;102343.32;1447317;99;21139;-52
2022/09/05 03:56:58;;;;;;;1.98;1.57;;;;;;;22.21;44.53;102352.60;1447427;96;21153;-52
2022/09/05 03:59:33;;;;;;;1.67;1.57;;;;;;;22.21;44.89;102355.25;1447284;99;21645;-57
2022/09/05 04:02:03;;;;;;;1.60;1.30;;;;;;;22.20;45.14;102358.82;1447517;99;21115;-56
2022/09/05 04:04:39;;;;;;;3.10;1.33;;;;;;;22.20;45.22;102361.47;1464619;98;21084;-60
2022/09/05 04:07:24;;;;;;;1.95;1.40;;;;;;;22.20;45.27;102361.47;1425662;99;21356;-53
2022/09/05 04:10:10;;;;;;;6.62;2.00;;;;;;;22.21;45.41;102355.71;1383746;102;21254;-54
2022/09/05 04:13:01;;;;;;;2.15;1.47;;;;;;;22.23;45.49;102358.70;1311863;109;21198;-56
2022/09/05 04:15:42;;;;;;;2.97;1.60;;;;;;;22.26;45.50;102358.55;1312981;109;21212;-56
2022/09/05 04:18:23;;;;;;;2.80;1.32;;;;;;;22.28;45.54;102359.79;1316911;109;21133;-55
2022/09/05 04:21:11;;;;;;;2.52;1.30;;;;;;;22.30;45.50;102362.78;1298032;110;21229;-56
2022/09/05 04:24:06;;;;;;;3.00;1.82;;;;;;;22.30;45.44;102361.45;1316931;109;21678;-56
2022/09/05 04:27:02;;;;;;;1.77;1.55;;;;;;;22.30;45.11;102365.43;1290998;110;21264;-56
2022/09/05 04:29:40;;;;;;;3.77;1.50;;;;;;;22.30;45.07;102361.91;1273288;112;21221;-55
2022/09/05 04:32:44;;;;;;;2.20;1.40;;;;;;;22.29;45.17;102363.73;1273771;112;21693;-55
2022/09/05 04:35:28;;;;;;;2.75;1.37;;;;;;;22.28;45.07;102367.29;1298400;105;21674;-54
2022/09/05 04:38:09;;;;;;;2.85;1.57;;;;;;;22.27;45.18;102375.33;1359211;105;21162;-51
2022/09/05 04:41:13;;;;;;;2.37;1.42;;;;;;;22.27;45.21;102374.87;1358934;104;21205;-53
2022/09/05 04:44:00;;;;;;;1.85;1.42;;;;;;;22.24;44.97;102374.12;1344836;104;21222;-53
2022/09/05 04:46:31;;;;;;;1.82;1.40;;;;;;;22.23;44.95;102377.72;1319178;105;21149;-54
2022/09/05 04:49:14;;;;;;;6.00;1.40;;;;;;;22.21;44.98;102387.08;1343985;107;21205;-55
2022/09/05 04:52:11;;;;;;;2.27;1.42;;;;;;;22.20;45.06;102382.69;1343342;105;21139;-57
2022/09/05 04:55:01;;;;;;;1.40;1.30;;;;;;;22.19;45.05;102380.98;1341824;106;21674;-55
2022/09/05 04:57:40;;;;;;;1.85;1.32;;;;;;;22.19;45.10;102379.66;1347100;106;21221;-56
2022/09/05 05:00:24;;;;;;;5.05;1.40;;;;;;;22.17;44.98;102378.86;1347215;106;21156;-56
2022/09/05 05:02:55;;;;;;;2.25;1.47;;;;;;;22.16;44.96;102378.45;1347222;105;21158;-55
2022/09/05 05:05:25;;;;;;;2.70;1.20;;;;;;;22.16;45.01;102381.55;1353780;106;21280;-60
2022/09/05 05:07:56;;;;;;;;;;;;;;;22.16;45.16;102381.10;1372288;103;21228;-55
2022/09/05 05:10:46;;;;;;;2.50;1.25;;;;;;;22.15;45.08;102384.70;1361877;104;20211;-57
2022/09/05 05:13:22;;;;;;;1.65;1.20;;;;;;;22.15;44.93;102383.38;1369934;103;21691;-55
2022/09/05 05:15:56;;;;;;;1.40;1.10;;;;;;;22.16;45.11;102385.08;1402719;101;21122;-54
2022/09/05 05:18:36;;;;;;;1.20;1.10;;;;;;;22.17;44.91;102382.84;1408868;102;21175;-53
2022/09/05 05:21:20;;;;;;;2.22;1.40;;;;;;;22.19;44.57;102384.95;1408440;102;21156;-53
2022/09/05 05:23:53;;;;;;;1.27;1.10;;;;;;;22.21;44.00;102391.05;1444475;96;21082;-55
2022/09/05 05:26:40;;;;;;;1.77;1.40;;;;;;;22.23;44.07;102387.87;1425127;99;21668;-53
2022/09/05 05:29:23;;;;;;;3.15;1.40;;;;;;;22.25;44.21;102392.64;1416838;100;21226;-53
2022/09/05 05:31:55;;;;;;;2.15;1.85;;;;;;;22.26;44.36;102394.34;1427882;100;21281;-53
2022/09/05 05:34:36;;;;;;;2.10;1.50;;;;;;;22.26;44.22;102390.36;1458943;93;21063;-55
2022/09/05 05:37:29;;;;;;;2.72;1.55;;;;;;;22.32;43.87;102387.89;1468684;96;21115;-58
2022/09/05 05:40:10;;;;;;;2.87;1.35;;;;;;;22.32;43.54;102390.09;1494503;93;21096;-53
2022/09/05 05:42:38;;;;;;;3.20;1.85;;;;;;;22.33;43.43;102389.17;1509512;94;21126;-56
2022/09/05 05:45:16;;;;;;;1.60;1.42;;;;;;;22.34;43.56;102397.52;1533555;91;21116;-55
2022/09/05 05:47:59;;;;;;;3.50;1.47;;;;;;;22.33;43.82;102396.27;1562852;90;21068;-53
2022/09/05 05:51:13;;;;;;;2.22;1.42;;;;;;;22.31;43.84;102401.64;1461871;97;21108;-53
2022/09/05 05:53:55;;;;;;;1.47;1.20;;;;;;;22.34;43.26;102399.33;1487995;94;21196;-51
2022/09/05 05:56:54;;;;;;;;;;;;;;;22.36;43.24;102402.28;1514321;94;21158;-54
2022/09/05 05:59:59;;;;;;;1.52;1.10;;;;;;;22.45;43.03;102407.19;1505357;94;20125;-52
2022/09/05 06:02:53;;;;;;;2.50;1.40;;;;;;;22.51;42.89;102405.58;1466856;97;21619;-55
2022/09/05 06:05:37;;;;;;;3.33;1.32;;;;;;;22.55;42.40;102405.84;1466576;97;21131;-52
2022/09/05 06:08:18;;;;;;;2.08;1.20;;;;;;;22.61;42.29;102407.38;1373543;101;21192;-58
2022/09/05 06:11:19;;;;;;;28.05;3.65;;;;;;;22.71;42.24;102413.14;1401088;101;21126;-58
2022/09/05 06:14:29;;;;;;;3.12;1.50;;;;;;;22.72;42.06;102409.54;1392806;101;21123;-51
2022/09/05 06:17:25;;;;;;;2.15;1.20;;;;;;;22.82;40.42;102412.16;1374117;104;21209;-52
2022/09/05 06:20:15;;;;;;;2.55;0.95;;;;;;;23.00;39.25;102424.11;1392040;103;21150;-52
2022/09/05 06:23:18;;;;;;;1.05;0.80;;;;;;;23.25;38.51;102422.02;1398317;101;21123;-52
2022/09/05 06:26:31;;;;;;;1.10;0.80;;;;;;;23.34;38.00;102428.71;1414718;100;21155;-54
2022/09/05 06:29:34;;;;;;;1.70;0.80;;;;;;;23.45;38.01;102425.08;1437033;100;21695;-54
2022/09/05 06:32:15;;;;;;;1.45;0.70;;;;;;;23.59;37.62;102434.55;1415997;101;21664;-55
2022/09/05 06:35:20;;;;;;;1.35;1.05;;;;;;;23.74;36.85;102431.11;1427111;100;21213;-54
2022/09/05 06:38:30;;;;;;;1.92;0.95;;;;;;;23.83;36.78;102438.64;1429209;100;21143;-55
2022/09/05 06:41:24;;;;;;;2.42;0.90;;;;;;;23.92;36.60;102440.84;1478447;97;21088;-54
2022/09/05 06:44:14;;;;;;;2.80;0.88;;;;;;;24.01;35.91;102444.80;1496487;94;21079;-54
2022/09/05 06:46:42;;;;;;;0.95;0.80;;;;;;;24.07;35.54;102445.39;1590608;89;21035;-53
2022/09/05 06:49:26;;;;;;;3.10;0.93;;;;;;;24.13;35.19;102453.05;1599373;88;21051;-54
2022/09/05 06:52:25;;;;;;;4.00;0.90;;;;;;;24.18;35.06;102452.36;1599030;90;21077;-56
2022/09/05 06:55:20;;;;;;;1.35;0.90;;;;;;;24.22;34.83;102456.58;1569094;91;21109;-55
2022/09/05 06:58:13;;;;;;;1.15;0.80;;;;;;;24.28;34.66;102461.21;1569068;91;21080;-55
2022/09/05 07:00:52;;;;;;;1.75;0.90;;;;;;;24.33;34.54;102464.47;1564363;90;21040;-54
2022/09/05 07:03:24;;;;;;;1.05;0.78;;;;;;;24.39;33.89;102466.81;1540306;93;21076;-54
2022/09/05 07:06:00;;;;;;;1.90;0.80;;;;;;;24.51;33.46;102463.50;1524309;93;21096;-53
2022/09/05 07:09:02;;;;;;;1.52;0.80;;;;;;;24.51;33.46;102463.50;1533647;93;21566;-53
2022/09/05 07:12:05;;;;;;;1.35;0.80;;;;;;;24.59;33.20;102467.48;1535436;93;21092;-61
2022/09/05 07:14:36;;;;;;;3.70;1.20;;;;;;;24.67;33.07;102472.39;1568531;90;21093;-59
2022/09/05 07:17:33;;;;;;;1.42;0.90;;;;;;;24.75;32.95;102472.90;1582173;90;21140;-55
2022/09/05 07:20:01;;;;;;;2.50;0.93;;;;;;;24.85;33.05;102464.80;1557847;91;21084;-55
2022/09/05 07:22:50;;;;;;;2.42;0.70;;;;;;;25.01;32.95;102468.34;1566043;91;21077;-53
2022/09/05 07:25:21;;;;;;;1.25;1.10;;;;;;;25.44;32.22;102470.82;1557554;89;21132;-56
2022/09/05 07:28:00;;;;;;;2.30;0.80;;;;;;;25.44;32.22;102470.82;1565557;91;21060;-58
2022/09/05 07:30:26;;;;;;;3.42;1.10;;;;;;;25.68;31.68;102468.94;1513507;93;21140;-58
2022/09/05 07:32:55;;;;;;;1.55;0.90;;;;;;;25.87;31.69;102469.20;1540654;93;21087;-53
2022/09/05 07:35:29;;;;;;;2.05;0.82;;;;;;;25.96;31.32;102468.67;1527071;91;21103;-56
2022/09/05 07:38:13;;;;;;;2.27;0.98;;;;;;;26.00;31.07;102468.41;1531475;93;21075;-53
2022/09/05 07:40:42;;;;;;;3.08;1.00;;;;;;;25.99;30.99;102470.67;1535242;92;21087;-56
2022/09/05 07:43:22;;;;;;;2.00;0.85;;;;;;;25.97;31.31;102475.70;1494937;96;21098;-59
2022/09/05 07:46:03;;;;;;;1.50;0.75;;;;;;;25.95;31.40;102470.94;1488726;96;21114;-55
2022/09/05 07:48:34;;;;;;;0.72;0.72;;;;;;;25.91;30.86;102465.41;1471236;96;21118;-60
2022/09/05 07:51:05;;;;;;;1.15;0.75;;;;;;;25.87;30.83;102463.87;1484606;96;21741;-59
2022/09/05 07:53:32;;;;;;;0.60;0.60;;;;;;;25.82;31.17;102467.66;1483998;96;21085;-58
2022/09/05 07:56:01;;;;;;;1.80;0.80;;;;;;;25.79;31.20;102459.86;1485135;96;21539;-58
2022/09/05 07:58:38;;;;;;;0.72;0.72;;;;;;;25.76;31.34;102460.02;1485372;96;21178;-56
2022/09/05 08:01:06;;;;;;;2.00;0.93;;;;;;;25.74;31.05;102463.25;1465031;97;21165;-56
2022/09/05 08:03:32;;;;;;;1.15;0.90;;;;;;;25.72;31.26;102458.95;1465024;97;21156;-56
2022/09/05 08:06:04;;;;;;;3.50;1.15;;;;;;;25.71;31.52;102465.25;1454913;97;21105;-59
2022/09/05 08:08:53;;;;;;;1.92;1.05;;;;;;;25.69;31.22;102466.67;1468163;96;21128;-55
2022/09/05 08:11:20;;;;;;;1.95;0.80;;;;;;;25.68;31.07;102463.61;1466452;95;21124;-53
2022/09/05 08:13:54;;;;;;;4.42;1.00;;;;;;;25.70;31.33;102459.05;1490745;95;21161;-55
2022/09/05 08:16:22;;;;;;;2.30;1.17;;;;;;;25.72;31.46;102458.48;1486594;95;21649;-53
2022/09/05 08:19:29;;;;;;;5.15;4.65;;;;;;;25.74;31.45;102464.59;1494421;95;21651;-54
2022/09/05 08:21:57;;;;;;;3.02;2.35;;;;;;;25.74;31.18;102459.25;1494307;95;21557;-54
2022/09/05 08:24:28;;;;;;;5.95;2.50;;;;;;;25.73;31.03;102457.55;1494470;95;21056;-54
2022/09/05 08:27:20;;;;;;;3.60;1.32;;;;;;;25.73;31.03;102457.55;1439369;100;21119;-54
2022/09/05 08:30:02;;;;;;;1.55;1.10;;;;;;;25.75;31.27;102458.32;1438874;100;21185;-54
2022/09/05 08:32:39;;;;;;;2.98;1.10;;;;;;;25.77;30.83;102459.09;1421798;99;21136;-54
2022/09/05 08:35:27;;;;;;;2.58;1.40;;;;;;;25.77;30.83;102459.09;1421981;99;21136;-54
2022/09/05 08:37:53;;;;;;;1.37;1.22;;;;;;;25.79;30.93;102462.52;1429090;98;21321;-57
2022/09/05 08:40:39;;;;;;;2.47;1.45;;;;;;;25.80;31.01;102464.23;1499232;94;21614;-54
2022/09/05 08:43:33;;;;;;;1.65;1.50;;;;;;;25.80;30.69;102462.89;1540865;93;21623;-54
2022/09/05 08:46:16;;;;;;;2.22;1.37;;;;;;;25.80;30.93;102461.56;1539176;93;21143;-53
2022/09/05 08:49:18;;;;;;;3.33;1.20;;;;;;;25.81;30.68;102463.30;1539467;93;21749;-56
2022/09/05 08:52:03;;;;;;;1.95;1.25;;;;;;;25.84;30.71;102456.93;1542097;93;21568;-54
2022/09/05 08:54:47;;;;;;;1.65;1.05;;;;;;;25.87;30.96;102459.86;1535437;93;21127;-54
2022/09/05 08:57:25;;;;;;;2.40;0.75;;;;;;;25.89;30.87;102459.30;1534867;92;21092;-53
2022/09/05 09:00:14;;;;;;;2.20;0.88;;;;;;;25.91;31.17;102454.73;1535043;92;21084;-53
2022/09/05 09:03:14;;;;;;;3.52;1.02;;;;;;;25.94;30.78;102458.10;1531028;94;21146;-56
2022/09/05 09:06:11;;;;;;;1.72;0.98;;;;;;;25.99;31.09;102460.50;1557564;92;22419;-61
2022/09/05 09:08:50;;;;;;;1.35;1.00;;;;;;;26.06;31.01;102459.17;1557288;92;21059;-53
2022/09/05 09:11:40;;;;;;;1.85;1.05;;;;;;;26.10;30.81;102461.61;1572469;91;21552;-58
2022/09/05 09:14:45;;;;;;;1.67;0.95;;;;;;;26.14;30.60;102459.60;1555216;92;21074;-56
2022/09/05 09:17:46;;;;;;;1.52;0.90;;;;;;;26.16;30.75;102460.37;1555348;91;21147;-54
2022/09/05 09:20:27;;;;;;;1.47;0.98;;;;;;;26.19;30.79;102458.86;1570292;90;21576;-56
2022/09/05 09:23:05;;;;;;;;;;;;;;;26.19;30.86;102453.53;1557862;91;21179;-54
2022/09/05 09:25:44;;;;;;;2.33;1.10;;;;;;;26.21;31.00;102455.62;1555470;92;20145;-55
2022/09/05 09:28:41;;;;;;;4.20;0.95;;;;;;;26.22;31.33;102450.66;1605284;88;21047;-55
2022/09/05 09:31:38;;;;;;;2.00;1.30;;;;;;;26.24;31.11;102450.09;1603944;88;21110;-56
2022/09/05 09:34:33;;;;;;;1.32;1.22;;;;;;;26.25;30.85;102450.48;1625836;87;21100;-54
2022/09/05 09:37:45;;;;;;;1.40;1.20;;;;;;;26.27;31.05;102453.45;1608490;88;21035;-54
2022/09/05 09:40:50;;;;;;;2.02;1.40;;;;;;;26.32;30.84;102455.81;1615301;87;21115;-58
2022/09/05 09:43:29;;;;;;;2.15;1.40;;;;;;;26.35;30.30;102451.17;1596309;88;21057;-55
2022/09/05 09:46:20;;;;;;;3.22;1.80;;;;;;;26.36;29.92;102446.67;1601761;89;21069;-58
2022/09/05 09:49:03;;;;;;;;;;;;;;;26.37;29.93;102448.41;1603832;90;21069;-58
2022/09/05 09:51:47;;;;;;;3.17;1.15;;;;;;;26.37;30.16;102438.59;1607027;88;20442;-59
2022/09/05 09:54:39;;;;;;;1.45;1.00;;;;;;;26.39;30.70;102442.02;1609576;89;21126;-54
2022/09/05 09:57:28;;;;;;;1.07;0.95;;;;;;;26.42;30.77;102441.82;1598656;88;21032;-55
2022/09/05 10:00:06;;;;;;;2.60;0.93;;;;;;;26.44;30.81;102437.24;1606259;88;21096;-55
2022/09/05 10:03:13;;;;;;;1.40;1.10;;;;;;;26.46;30.26;102443.34;1630239;87;21065;-56
2022/09/05 10:06:24;;;;;;;1.80;0.70;;;;;;;26.50;30.47;102436.03;1632392;88;21110;-54
2022/09/05 10:09:33;;;;;;;1.22;0.80;;;;;;;26.53;30.59;102435.83;1632078;86;21118;-60
2022/09/05 10:12:44;;;;;;;2.10;0.90;;;;;;;26.55;30.25;102433.92;1643027;87;21055;-54
2022/09/05 10:15:58;;;;;;;1.77;1.15;;;;;;;26.63;29.84;102436.97;1650970;86;21535;-60
2022/09/05 10:18:33;;;;;;;1.37;1.27;;;;;;;26.70;29.84;102442.32;1646542;87;21037;-60
2022/09/05 10:21:26;;;;;;;1.22;0.93;;;;;;;26.74;29.87;102438.53;1642709;87;21048;-58
2022/09/05 10:24:24;;;;;;;1.05;0.82;;;;;;;26.78;29.82;102444.06;1608873;89;21040;-56
2022/09/05 10:27:08;;;;;;;0.95;0.85;;;;;;;26.79;29.72;102443.09;1630667;87;21102;-61
2022/09/05 10:29:43;;;;;;;1.85;1.05;;;;;;;26.81;29.94;102434.50;1611700;89;21535;-54
2022/09/05 10:32:21;;;;;;;1.15;0.95;;;;;;;26.83;29.88;102432.59;1595886;88;21095;-53
2022/09/05 10:35:06;;;;;;;1.12;1.02;;;;;;;26.86;29.74;102436.42;1611655;89;21103;-56
2022/09/05 10:37:48;;;;;;;1.70;1.40;;;;;;;26.87;29.11;102432.81;1608481;89;21060;-56
2022/09/05 10:40:21;;;;;;;1.95;1.10;;;;;;;26.85;29.53;102429.38;1597367;89;21020;-58
2022/09/05 10:42:53;;;;;;;0.93;0.90;;;;;;;26.85;29.72;102422.70;1566282;90;21161;-57
2022/09/05 10:45:31;;;;;;;1.60;0.95;;;;;;;26.88;29.62;102425.16;1558971;91;21123;-56
2022/09/05 10:48:24;;;;;;;1.37;0.98;;;;;;;26.89;29.50;102425.55;1559315;92;21152;-56
2022/09/05 10:51:03;;;;;;;2.87;1.22;;;;;;;26.92;29.23;102425.34;1548897;93;21037;-59
2022/09/05 10:53:34;;;;;;;1.72;1.20;;;;;;;26.92;29.00;102428.02;1494269;95;21211;-56
2022/09/05 10:56:18;;;;;;;1.02;0.93;;;;;;;26.90;28.88;102431.27;1528609;93;21593;-54
2022/09/05 10:59:03;;;;;;;1.27;1.00;;;;;;;26.88;28.81;102423.82;1474188;97;21211;-54
2022/09/05 11:01:40;;;;;;;1.45;1.35;;;;;;;26.83;29.47;102420.57;1440691;98;21124;-54
2022/09/05 11:04:45;;;;;;;1.92;0.90;;;;;;;26.81;29.88;102417.14;1434383;100;21080;-56
2022/09/05 11:07:23;;;;;;;0.80;0.80;;;;;;;26.83;29.72;102415.23;1434399;100;21294;-58
2022/09/05 11:10:05;;;;;;;1.45;0.98;;;;;;;26.84;29.77;102408.95;1394519;101;21148;-54
2022/09/05 11:13:00;;;;;;;1.37;0.80;;;;;;;26.86;29.62;102411.05;1394669;103;21125;-56
2022/09/05 11:15:42;;;;;;;3.20;0.93;;;;;;;26.89;29.44;102409.53;1394749;103;21277;-54
2022/09/05 11:18:23;;;;;;;2.12;1.10;;;;;;;26.91;28.77;102403.61;1375524;104;21713;-57
2022/09/05 11:21:00;;;;;;;3.12;1.05;;;;;;;26.93;28.49;102403.03;1371671;104;21164;-57
2022/09/05 11:23:43;;;;;;;1.72;0.90;;;;;;;26.93;28.29;102401.70;1374766;104;21154;-51
2022/09/05 11:26:49;;;;;;;1.25;0.90;;;;;;;26.93;28.64;102403.50;1375148;104;21104;-56
2022/09/05 11:29:23;;;;;;;3.05;1.07;;;;;;;26.93;28.94;102396.82;1329799;107;21243;-56
2022/09/05 11:32:04;;;;;;;2.00;0.88;;;;;;;26.93;28.86;102385.66;1357587;104;21229;-60
2022/09/05 11:34:58;;;;;;;1.02;0.82;;;;;;;26.95;28.77;102388.23;1361338;104;21160;-55
2022/09/05 11:38:13;;;;;;;0.95;0.88;;;;;;;26.94;28.92;102386.03;1367747;104;21209;-56
2022/09/05 11:41:12;;;;;;;2.08;1.12;;;;;;;26.92;28.41;102374.59;1381218;102;21092;-55
2022/09/05 11:44:19;;;;;;;1.45;0.80;;;;;;;26.89;28.43;102377.47;1383527;102;21103;-60
2022/09/05 11:47:15;;;;;;;1.85;0.90;;;;;;;26.89;28.72;102375.27;1374992;104;21209;-54
2022/09/05 11:50:26;;;;;;;3.30;0.98;;;;;;;26.86;28.95;102370.97;1384020;102;21095;-56
2022/09/05 11:53:16;;;;;;;2.87;1.02;;;;;;;26.85;29.00;102374.62;1382269;101;21631;-56
2022/09/05 11:56:21;;;;;;;2.30;1.20;;;;;;;26.85;28.41;102373.75;1325986;105;21695;-56
2022/09/05 11:59:18;;;;;;;1.52;1.00;;;;;;;26.83;28.65;102371.16;1308558;109;21183;-56
2022/09/05 12:02:31;;;;;;;1.60;1.02;;;;;;;26.86;28.65;102367.44;1352252;104;21265;-59
2022/09/05 12:06:06;;;;;;;1.35;1.10;;;;;;;26.88;28.80;102367.72;1321172;107;21642;-54
2022/09/05 12:09:32;;;;;;;1.45;0.90;;;;;;;26.90;28.39;102360.47;1443938;97;21124;-55
2022/09/05 12:12:51;;;;;;;1.02;0.90;;;;;;;26.90;28.28;102363.14;1445240;99;21615;-57
2022/09/05 12:15:43;;;;;;;1.37;0.93;;;;;;;26.87;27.93;102358.02;1406639;101;21136;-55
2022/09/05 12:18:42;;;;;;;1.07;0.98;;;;;;;26.86;27.80;102351.41;1406781;100;21207;-55
2022/09/05 12:21:30;;;;;;;4.25;1.10;;;;;;;26.84;28.08;102343.51;1407388;101;21243;-53
2022/09/05 12:24:14;;;;;;;3.05;1.20;;;;;;;26.83;28.43;102345.78;1379872;103;21199;-56
2022/09/05 12:26:49;;;;;;;1.62;1.17;;;;;;;26.83;28.65;102336.94;1385141;102;21142;-56
2022/09/05 12:29:20;;;;;;;1.37;1.00;;;;;;;26.83;28.73;102333.77;1399173;102;21660;-53
2022/09/05 12:31:52;;;;;;;1.40;1.10;;;;;;;26.85;28.71;102329.21;1425247;96;21081;-54
2022/09/05 12:34:52;;;;;;;1.10;1.00;;;;;;;26.86;29.36;102321.56;1440602;99;21588;-55
2022/09/05 12:37:36;;;;;;;2.90;0.80;;;;;;;26.88;29.63;102324.13;1440662;99;21101;-54
2022/09/05 12:40:15;;;;;;;1.82;1.32;;;;;;;26.95;29.48;102320.97;1437166;99;21656;-56
2022/09/05 12:42:52;;;;;;;1.82;1.30;;;;;;;26.92;29.51;102316.28;1434741;99;21191;-54
2022/09/05 12:45:48;;;;;;;0.90;0.80;;;;;;;26.93;29.23;102317.55;1477059;96;21088;-55
2022/09/05 12:48:30;;;;;;;1.82;1.30;;;;;;;26.94;29.42;102311.70;1500679;95;21135;-54
2022/09/05 12:51:04;;;;;;;2.58;1.35;;;;;;;26.95;29.37;102315.63;1504218;95;21648;-53
2022/09/05 12:53:43;;;;;;;4.85;1.40;;;;;;;26.95;29.18;102307.61;1563336;91;21092;-54
2022/09/05 12:56:25;;;;;;;1.32;1.00;;;;;;;26.96;28.84;102303.97;1548446;92;21659;-54
2022/09/05 12:58:53;;;;;;;1.52;1.10;;;;;;;26.97;29.24;102303.50;1539996;92;21104;-58
2022/09/05 13:01:37;;;;;;;2.45;1.15;;;;;;;26.99;29.14;102302.91;1541969;90;21141;-57